Mixon, Texas
Current Conditions -  °F | °C
As of 6:35 PM on Monday 24 Nov 2014 (Local Time) from KJSO Reporting Station
Clear Clear  
Wind Chill: 54°   Ceiling: Unl
Heat Index: 54°   Visibility: 10mi
Dew Point: 28°   Wind: 0mph
Humidity: 37%   Direction: NA
Pressure: 30.09"   Gusts: NA
Location:  32.0774°N, 95.1103°W
Report Text: KJSO 250035Z AUTO 00000KT 10SM CLR 12/M02 A3009 RMK AO2 T01211022
Loading
Personal Weather Stations






























Interactive Weather Map New forecast layout! Learn more

10-Day Weather Forecast

Advertisements
Track Severe Weather on mobile